createdAt,value
2022-09-04T00:00:39.172Z,0.00
2022-09-04T00:01:40.094Z,0.00
2022-09-04T00:02:39.113Z,0.00
2022-09-04T00:03:39.183Z,0.00
2022-09-04T00:04:39.196Z,0.00
2022-09-04T00:05:39.052Z,0.00
2022-09-04T00:06:39.031Z,0.00
2022-09-04T00:07:39.007Z,0.00
2022-09-04T00:08:38.982Z,0.00
2022-09-04T00:09:38.970Z,0.00
2022-09-04T00:10:38.955Z,0.00
2022-09-04T00:11:38.926Z,0.00
2022-09-04T00:12:38.900Z,0.00
2022-09-04T00:13:38.875Z,0.00
2022-09-04T00:14:38.856Z,0.00
2022-09-04T00:15:38.836Z,0.00
2022-09-04T00:16:38.837Z,0.00
2022-09-04T00:17:38.796Z,0.00
2022-09-04T00:18:38.769Z,0.00
2022-09-04T00:19:38.749Z,0.00
2022-09-04T00:20:38.722Z,0.00
2022-09-04T00:21:38.736Z,0.00
2022-09-04T00:22:38.688Z,0.00
2022-09-04T00:23:38.661Z,0.00
2022-09-04T00:24:38.644Z,0.00
2022-09-04T00:25:38.620Z,0.00
2022-09-04T00:26:38.604Z,0.00
2022-09-04T00:27:38.602Z,0.00
2022-09-04T00:28:38.554Z,0.00
2022-09-04T00:29:38.537Z,0.00
2022-09-04T00:30:38.559Z,0.00
2022-09-04T00:31:38.494Z,0.00
2022-09-04T00:32:38.471Z,0.00
2022-09-04T00:33:38.451Z,0.00
2022-09-04T00:34:38.439Z,0.00
2022-09-04T00:35:38.414Z,0.00
2022-09-04T00:36:38.384Z,0.00
2022-09-04T00:37:38.364Z,0.00
2022-09-04T00:38:38.344Z,0.00
2022-09-04T00:39:38.348Z,0.00
2022-09-04T00:40:38.303Z,0.00
2022-09-04T00:41:38.285Z,0.00
2022-09-04T00:42:38.258Z,0.00
2022-09-04T00:43:38.252Z,0.00
2022-09-04T00:44:38.218Z,0.00
2022-09-04T00:45:38.212Z,0.00
2022-09-04T00:46:38.170Z,0.00
2022-09-04T00:47:38.155Z,0.00
2022-09-04T00:48:38.123Z,0.00
2022-09-04T00:49:38.120Z,0.00
2022-09-04T00:50:38.084Z,0.00
2022-09-04T00:51:38.067Z,0.00
2022-09-04T00:52:38.048Z,0.00
2022-09-04T00:53:38.027Z,0.00
2022-09-04T00:54:38.000Z,0.00
2022-09-04T00:55:37.978Z,0.00
2022-09-04T00:56:37.955Z,0.00
2022-09-04T00:57:37.982Z,0.00
2022-09-04T00:58:37.922Z,0.00
2022-09-04T00:59:37.895Z,0.00
2022-09-04T01:00:37.870Z,0.00
2022-09-04T01:01:38.762Z,0.00
2022-09-04T01:02:37.828Z,0.00
2022-09-04T01:03:37.809Z,0.00
2022-09-04T01:04:37.790Z,0.00
2022-09-04T01:05:37.767Z,0.00
2022-09-04T01:06:37.743Z,0.00
2022-09-04T01:07:37.729Z,0.00
2022-09-04T01:08:37.699Z,0.00
2022-09-04T01:09:37.679Z,0.00
2022-09-04T01:10:37.656Z,0.00
2022-09-04T01:11:37.644Z,0.00
2022-09-04T01:12:37.610Z,0.00
2022-09-04T01:13:37.593Z,0.00
2022-09-04T01:14:37.613Z,0.00
2022-09-04T01:15:37.573Z,0.00
2022-09-04T01:16:37.637Z,0.00
2022-09-04T01:17:37.512Z,0.00
2022-09-04T01:18:37.501Z,0.00
2022-09-04T01:19:37.463Z,0.00
2022-09-04T01:20:37.444Z,0.00
2022-09-04T01:21:37.432Z,0.00
2022-09-04T01:22:37.396Z,0.00
2022-09-04T01:23:37.380Z,0.00
2022-09-04T01:24:37.354Z,0.00
2022-09-04T01:25:37.341Z,0.00
2022-09-04T01:26:37.315Z,0.00
2022-09-04T01:27:37.293Z,0.00
2022-09-04T01:28:37.271Z,0.00
2022-09-04T01:29:37.252Z,0.00
2022-09-04T01:30:37.231Z,0.00
2022-09-04T01:31:37.233Z,0.00
2022-09-04T01:32:37.189Z,0.00
2022-09-04T01:33:37.167Z,0.00
2022-09-04T01:34:37.145Z,0.00
2022-09-04T01:35:37.125Z,0.00
2022-09-04T01:36:37.105Z,0.00
2022-09-04T01:37:37.080Z,0.00
2022-09-04T01:38:37.056Z,0.00
2022-09-04T01:39:37.105Z,0.00
2022-09-04T01:40:37.026Z,0.00
2022-09-04T01:41:38.601Z,0.00
2022-09-04T01:42:37.049Z,0.00
2022-09-04T01:43:36.951Z,0.00
2022-09-04T01:44:36.956Z,0.00
2022-09-04T01:45:36.976Z,0.00
2022-09-04T01:46:36.887Z,0.00
2022-09-04T01:47:36.866Z,0.00
2022-09-04T01:48:36.865Z,0.00
2022-09-04T01:49:36.829Z,0.00
2022-09-04T01:50:36.804Z,0.00
2022-09-04T01:51:36.782Z,0.00
2022-09-04T01:52:36.847Z,0.00
2022-09-04T01:53:36.750Z,0.00
2022-09-04T01:54:36.723Z,0.00
2022-09-04T01:55:36.705Z,0.00
2022-09-04T01:56:36.672Z,0.00
2022-09-04T01:57:36.652Z,0.00
2022-09-04T01:58:36.632Z,0.00
2022-09-04T01:59:36.615Z,0.00
2022-09-04T02:00:37.940Z,0.00
2022-09-04T02:01:36.591Z,0.00
2022-09-04T02:02:36.649Z,0.00
2022-09-04T02:03:36.524Z,0.00
2022-09-04T02:04:36.502Z,0.00
2022-09-04T02:05:36.490Z,0.00
2022-09-04T02:06:36.457Z,0.00
2022-09-04T02:07:36.437Z,0.00
2022-09-04T02:08:36.432Z,0.00
2022-09-04T02:09:36.429Z,0.00
2022-09-04T02:10:36.376Z,0.00
2022-09-04T02:11:36.351Z,0.00
2022-09-04T02:12:36.331Z,0.00
2022-09-04T02:13:36.307Z,0.00
2022-09-04T02:14:36.291Z,0.00
2022-09-04T02:15:36.267Z,0.00
2022-09-04T02:16:36.359Z,0.00
2022-09-04T02:17:36.221Z,0.00
2022-09-04T02:18:36.206Z,0.00
2022-09-04T02:19:36.176Z,0.00
2022-09-04T02:20:36.160Z,0.00
2022-09-04T02:21:36.137Z,0.00
2022-09-04T02:22:36.118Z,0.00
2022-09-04T02:23:36.096Z,0.00
2022-09-04T02:24:36.082Z,0.00
2022-09-04T02:25:36.089Z,0.00
2022-09-04T02:26:36.032Z,0.00
2022-09-04T02:27:36.011Z,0.00
2022-09-04T02:28:36.000Z,0.00
2022-09-04T02:29:35.969Z,0.00
2022-09-04T02:30:35.947Z,0.00
2022-09-04T02:31:35.955Z,0.00
2022-09-04T02:32:35.912Z,0.00
2022-09-04T02:33:35.888Z,0.00
2022-09-04T02:34:35.866Z,0.00
2022-09-04T02:35:35.836Z,0.00
2022-09-04T02:36:35.816Z,0.00
2022-09-04T02:37:35.798Z,0.00
2022-09-04T02:38:35.771Z,0.00
2022-09-04T02:39:35.790Z,0.00
2022-09-04T02:40:35.727Z,0.00
2022-09-04T02:41:35.713Z,0.00
2022-09-04T02:42:35.717Z,0.00
2022-09-04T02:43:35.680Z,0.00
2022-09-04T02:44:35.644Z,0.00
2022-09-04T02:45:35.624Z,0.00
2022-09-04T02:46:38.079Z,0.00
2022-09-04T02:47:35.590Z,0.00
2022-09-04T02:48:35.559Z,0.00
2022-09-04T02:49:35.536Z,0.00
2022-09-04T02:50:35.526Z,0.00
2022-09-04T02:51:35.498Z,0.00
2022-09-04T02:52:35.481Z,0.00
2022-09-04T02:53:35.483Z,0.00
2022-09-04T02:54:35.432Z,0.00
2022-09-04T02:55:35.413Z,0.00
2022-09-04T02:56:35.391Z,0.00
2022-09-04T02:57:35.370Z,0.00
2022-09-04T02:58:35.346Z,0.00
2022-09-04T02:59:35.331Z,0.00
2022-09-04T03:00:35.409Z,0.00
2022-09-04T03:01:35.359Z,0.00
2022-09-04T03:02:35.259Z,0.00
2022-09-04T03:03:35.243Z,0.00
2022-09-04T03:04:35.232Z,0.00
2022-09-04T03:05:35.197Z,0.00
2022-09-04T03:06:35.184Z,0.00
2022-09-04T03:07:35.155Z,0.00
2022-09-04T03:08:36.340Z,0.00
2022-09-04T03:09:35.119Z,0.00
2022-09-04T03:10:35.110Z,0.00
2022-09-04T03:11:35.069Z,0.00
2022-09-04T03:12:35.048Z,0.00
2022-09-04T03:13:35.031Z,0.00
2022-09-04T03:14:35.004Z,0.00
2022-09-04T03:15:34.983Z,0.00
2022-09-04T03:16:35.065Z,0.00
2022-09-04T03:17:34.938Z,0.00
2022-09-04T03:18:34.913Z,0.00
2022-09-04T03:19:35.112Z,0.00
2022-09-04T03:20:34.872Z,0.00
2022-09-04T03:21:34.850Z,0.00
2022-09-04T03:22:34.857Z,0.00
2022-09-04T03:23:34.807Z,0.00
2022-09-04T03:24:34.780Z,0.00
2022-09-04T03:25:34.784Z,0.00
2022-09-04T03:26:34.755Z,0.00
2022-09-04T03:27:34.731Z,0.00
2022-09-04T03:28:34.697Z,0.00
2022-09-04T03:29:34.677Z,0.00
2022-09-04T03:30:34.659Z,0.00
2022-09-04T03:31:34.660Z,0.00
2022-09-04T03:32:34.616Z,0.00
2022-09-04T03:33:34.587Z,0.00
2022-09-04T03:34:34.563Z,0.00
2022-09-04T03:35:34.547Z,0.00
2022-09-04T03:36:34.534Z,0.00
2022-09-04T03:37:34.500Z,0.00
2022-09-04T03:38:34.481Z,0.00
2022-09-04T03:39:34.530Z,0.00
2022-09-04T03:40:34.436Z,0.00
2022-09-04T03:41:34.422Z,0.00
2022-09-04T03:42:34.395Z,0.00
2022-09-04T03:43:34.370Z,0.00
2022-09-04T03:44:34.377Z,0.00
2022-09-04T03:45:34.330Z,0.00
2022-09-04T03:46:34.356Z,0.00
2022-09-04T03:47:34.281Z,0.00
2022-09-04T03:48:34.265Z,0.00
2022-09-04T03:49:34.242Z,0.00
2022-09-04T03:50:34.233Z,0.00
2022-09-04T03:51:34.202Z,0.00
2022-09-04T03:52:34.184Z,0.00
2022-09-04T03:53:34.165Z,0.00
2022-09-04T03:54:34.129Z,0.00
2022-09-04T03:55:34.108Z,0.00
2022-09-04T03:56:34.095Z,0.00
2022-09-04T03:57:34.072Z,0.00
2022-09-04T03:58:34.063Z,0.00
2022-09-04T03:59:34.044Z,0.00
2022-09-04T04:00:34.090Z,0.00
2022-09-04T04:01:33.978Z,0.00
2022-09-04T04:02:33.997Z,0.00
2022-09-04T04:03:33.951Z,0.00
2022-09-04T04:04:33.915Z,0.00
2022-09-04T04:05:33.898Z,0.00
2022-09-04T04:06:33.888Z,0.00
2022-09-04T04:07:33.848Z,0.00
2022-09-04T04:08:33.828Z,0.00
2022-09-04T04:09:33.801Z,0.00
2022-09-04T04:10:33.926Z,0.00
2022-09-04T04:11:35.267Z,4.00
2022-09-04T04:12:33.734Z,4.00
2022-09-04T04:13:33.719Z,0.00
2022-09-04T04:14:33.690Z,0.00
2022-09-04T04:15:33.668Z,4.00
2022-09-04T04:16:33.778Z,4.00
2022-09-04T04:17:33.656Z,4.00
2022-09-04T04:18:33.612Z,4.00
2022-09-04T04:19:33.579Z,8.00
2022-09-04T04:20:33.569Z,8.00
2022-09-04T04:21:33.543Z,12.00
2022-09-04T04:22:33.529Z,12.00
2022-09-04T04:23:33.497Z,12.00
2022-09-04T04:24:33.474Z,20.00
2022-09-04T04:25:33.452Z,20.00
2022-09-04T04:26:33.434Z,24.00
2022-09-04T04:27:33.483Z,28.00
2022-09-04T04:28:33.398Z,32.00
2022-09-04T04:29:33.363Z,40.00
2022-09-04T04:30:33.342Z,48.00
2022-09-04T04:31:33.350Z,56.00
2022-09-04T04:32:33.298Z,60.00
2022-09-04T04:33:33.278Z,72.00
2022-09-04T04:34:33.257Z,80.00
2022-09-04T04:35:33.235Z,96.00
2022-09-04T04:36:33.217Z,108.00
2022-09-04T04:37:33.192Z,120.00
2022-09-04T04:38:33.168Z,136.00
2022-09-04T04:39:33.207Z,152.00
2022-09-04T04:40:33.149Z,172.00
2022-09-04T04:41:33.106Z,188.00
2022-09-04T04:42:33.086Z,212.00
2022-09-04T04:43:33.056Z,232.00
2022-09-04T04:44:33.034Z,256.00
2022-09-04T04:45:33.019Z,280.00
2022-09-04T04:46:33.045Z,304.00
2022-09-04T04:47:32.978Z,332.00
2022-09-04T04:48:32.950Z,356.00
2022-09-04T04:49:32.930Z,388.00
2022-09-04T04:50:32.907Z,416.00
2022-09-04T04:51:32.890Z,448.00
2022-09-04T04:52:32.868Z,476.00
2022-09-04T04:53:32.843Z,508.00
2022-09-04T04:54:32.840Z,540.00
2022-09-04T04:55:32.797Z,572.00
2022-09-04T04:56:32.773Z,608.00
2022-09-04T04:57:32.753Z,636.00
2022-09-04T04:58:32.732Z,672.00
2022-09-04T04:59:32.707Z,708.00
2022-09-04T05:00:32.682Z,744.00
2022-09-04T05:01:32.794Z,776.00
2022-09-04T05:02:32.752Z,816.00
2022-09-04T05:03:32.621Z,848.00
2022-09-04T05:04:32.638Z,888.00
2022-09-04T05:05:32.572Z,924.00
2022-09-04T05:06:32.562Z,964.00
2022-09-04T05:07:32.533Z,1004.00
2022-09-04T05:08:32.535Z,1044.00
2022-09-04T05:09:32.494Z,1084.00
2022-09-04T05:10:32.466Z,1120.00
2022-09-04T05:11:32.455Z,1160.00
2022-09-04T05:12:32.431Z,1200.00
2022-09-04T05:13:32.401Z,1236.00
2022-09-04T05:14:32.379Z,1268.00
2022-09-04T05:15:32.357Z,1304.00
2022-09-04T05:16:32.377Z,1336.00
2022-09-04T05:17:32.314Z,1368.00
2022-09-04T05:18:32.294Z,1396.00
2022-09-04T05:19:32.268Z,1428.00
2022-09-04T05:20:32.254Z,1460.00
2022-09-04T05:21:32.242Z,1492.00
2022-09-04T05:22:34.360Z,1520.00
2022-09-04T05:23:32.182Z,1544.00
2022-09-04T05:24:32.161Z,1568.00
2022-09-04T05:25:32.143Z,1588.00
2022-09-04T05:26:32.119Z,1616.00
2022-09-04T05:27:32.093Z,1648.00
2022-09-04T05:28:32.079Z,1680.00
2022-09-04T05:29:32.769Z,1720.00
2022-09-04T05:30:32.049Z,1760.00
2022-09-04T05:31:32.046Z,1800.00
2022-09-04T05:32:31.984Z,1844.00
2022-09-04T05:33:32.051Z,1888.00
2022-09-04T05:34:31.981Z,1924.00
2022-09-04T05:35:35.591Z,1960.00
2022-09-04T05:36:31.963Z,1980.00
2022-09-04T05:37:31.926Z,1996.00
2022-09-04T05:38:32.111Z,2016.00
2022-09-04T05:39:31.971Z,2040.00
2022-09-04T05:40:31.873Z,2064.00
2022-09-04T05:41:31.791Z,2096.00
2022-09-04T05:42:31.779Z,2132.00
2022-09-04T05:43:31.764Z,2164.00
2022-09-04T05:44:31.733Z,2192.00
2022-09-04T05:45:31.706Z,2220.00
2022-09-04T05:46:31.734Z,2256.00
2022-09-04T05:47:31.665Z,2288.00
2022-09-04T05:48:31.643Z,2324.00
2022-09-04T05:49:31.626Z,2368.00
2022-09-04T05:50:31.646Z,2408.00
2022-09-04T05:51:31.582Z,2452.00
2022-09-04T05:52:31.559Z,2496.00
2022-09-04T05:53:31.539Z,2536.00
2022-09-04T05:54:31.513Z,2580.00
2022-09-04T05:55:31.503Z,2616.00
2022-09-04T05:56:31.471Z,2656.00
2022-09-04T05:57:31.452Z,2700.00
2022-09-04T05:58:31.446Z,2764.00
2022-09-04T05:59:31.405Z,2840.00
2022-09-04T06:00:31.389Z,2948.00
2022-09-04T06:01:31.412Z,3132.00
2022-09-04T06:02:31.367Z,3328.00
2022-09-04T06:03:31.324Z,3496.00
2022-09-04T06:04:31.301Z,3676.00
2022-09-04T06:05:31.277Z,3740.00
2022-09-04T06:06:31.258Z,3536.00
2022-09-04T06:07:31.231Z,3328.00
2022-09-04T06:08:31.313Z,3200.00
2022-09-04T06:09:31.202Z,3100.00
2022-09-04T06:10:31.180Z,3060.00
2022-09-04T06:11:31.150Z,3044.00
2022-09-04T06:12:31.127Z,3036.00
2022-09-04T06:13:31.110Z,3064.00
2022-09-04T06:14:31.101Z,3076.00
2022-09-04T06:15:31.073Z,3092.00
2022-09-04T06:16:31.087Z,3132.00
2022-09-04T06:17:31.026Z,3176.00
2022-09-04T06:18:31.009Z,3212.00
2022-09-04T06:19:30.986Z,3236.00
2022-09-04T06:20:30.971Z,3276.00
2022-09-04T06:21:30.947Z,3608.00
2022-09-04T06:22:30.922Z,6780.00
2022-09-04T06:23:30.927Z,7532.00
2022-09-04T06:24:30.882Z,4600.00
2022-09-04T06:25:30.876Z,3908.00
2022-09-04T06:26:30.839Z,3844.00
2022-09-04T06:27:30.823Z,3732.00
2022-09-04T06:28:30.804Z,3780.00
2022-09-04T06:29:30.797Z,3820.00
2022-09-04T06:30:30.766Z,3796.00
2022-09-04T06:31:30.813Z,3860.00
2022-09-04T06:32:30.724Z,3900.00
2022-09-04T06:33:30.702Z,3852.00
2022-09-04T06:34:30.677Z,3832.00
2022-09-04T06:35:30.670Z,3816.00
2022-09-04T06:36:30.658Z,3888.00
2022-09-04T06:37:30.618Z,3964.00
2022-09-04T06:38:30.603Z,4032.00
2022-09-04T06:39:30.689Z,4072.00
2022-09-04T06:40:30.581Z,4040.00
2022-09-04T06:41:30.541Z,4024.00
2022-09-04T06:42:30.521Z,4000.00
2022-09-04T06:43:30.505Z,3952.00
2022-09-04T06:44:30.477Z,3912.00
2022-09-04T06:45:30.459Z,3900.00
2022-09-04T06:46:30.489Z,3852.00
2022-09-04T06:47:30.427Z,3800.00
2022-09-04T06:48:30.404Z,3776.00
2022-09-04T06:49:30.402Z,3752.00
2022-09-04T06:50:30.369Z,3736.00
2022-09-04T06:51:32.261Z,3732.00
2022-09-04T06:52:30.335Z,3744.00
2022-09-04T06:53:30.324Z,3764.00
2022-09-04T06:54:32.429Z,3792.00
2022-09-04T06:55:30.270Z,3820.00
2022-09-04T06:56:30.255Z,3844.00
2022-09-04T06:57:30.230Z,3864.00
2022-09-04T06:58:30.217Z,3900.00
2022-09-04T06:59:30.191Z,3920.00
2022-09-04T07:00:30.171Z,3956.00
2022-09-04T07:01:30.288Z,4008.00
2022-09-04T07:02:30.184Z,4056.00
2022-09-04T07:03:30.133Z,4068.00
2022-09-04T07:04:30.105Z,4064.00
2022-09-04T07:05:30.109Z,4052.00
2022-09-04T07:06:30.063Z,4048.00
2022-09-04T07:07:30.056Z,4072.00
2022-09-04T07:08:30.022Z,4120.00
2022-09-04T07:09:30.004Z,4148.00
2022-09-04T07:10:29.996Z,4188.00
2022-09-04T07:11:29.970Z,4244.00
2022-09-04T07:12:29.958Z,4328.00
2022-09-04T07:13:29.934Z,4424.00
2022-09-04T07:14:29.915Z,4516.00
2022-09-04T07:16:29.876Z,4604.00
2022-09-04T07:17:29.860Z,4676.00
2022-09-04T07:18:29.845Z,4724.00
2022-09-04T07:19:29.832Z,4768.00
2022-09-04T07:20:29.808Z,4776.00
2022-09-04T07:21:30.417Z,4820.00
2022-09-04T07:22:29.793Z,4900.00
2022-09-04T07:23:29.753Z,4932.00
2022-09-04T07:24:29.733Z,4960.00
2022-09-04T07:25:29.714Z,4980.00
2022-09-04T07:26:29.690Z,4948.00
2022-09-04T07:27:29.675Z,4916.00
2022-09-04T07:28:29.658Z,4932.00
2022-09-04T07:29:29.642Z,5004.00
2022-09-04T07:30:29.631Z,5200.00
2022-09-04T07:31:29.626Z,5372.00
2022-09-04T07:32:29.590Z,5500.00
2022-09-04T07:33:29.581Z,5588.00
2022-09-04T07:34:29.557Z,5612.00
2022-09-04T07:35:29.536Z,5556.00
2022-09-04T07:36:29.870Z,5464.00
2022-09-04T07:37:29.506Z,5484.00
2022-09-04T07:38:29.489Z,5600.00
2022-09-04T07:39:29.512Z,5648.00
2022-09-04T07:40:30.801Z,5708.00
2022-09-04T07:41:29.455Z,5768.00
2022-09-04T07:42:30.916Z,5744.00
2022-09-04T07:43:29.406Z,5660.00
2022-09-04T07:44:29.409Z,5724.00
2022-09-04T07:45:29.403Z,5732.00
2022-09-04T07:46:29.375Z,5720.00
2022-09-04T07:47:29.341Z,5780.00
2022-09-04T07:48:29.342Z,5816.00
2022-09-04T07:49:29.315Z,5916.00
2022-09-04T07:50:29.291Z,6012.00
2022-09-04T07:51:29.277Z,6200.00
2022-09-04T07:52:29.258Z,6500.00
2022-09-04T07:53:29.253Z,6708.00
2022-09-04T07:54:29.230Z,6828.00
2022-09-04T07:55:29.214Z,6916.00
2022-09-04T07:56:29.203Z,7028.00
2022-09-04T07:57:29.186Z,7056.00
2022-09-04T07:58:29.172Z,7092.00
2022-09-04T07:59:29.155Z,7068.00
2022-09-04T08:00:29.140Z,7064.00
2022-09-04T08:01:29.154Z,7160.00
2022-09-04T08:02:29.110Z,7308.00
2022-09-04T08:03:29.097Z,7448.00
2022-09-04T08:04:29.165Z,7528.00
2022-09-04T08:05:29.063Z,7564.00
2022-09-04T08:06:29.053Z,7696.00
2022-09-04T08:07:29.033Z,7916.00
2022-09-04T08:08:29.022Z,8128.00
2022-09-04T08:09:29.011Z,8296.00
2022-09-04T08:10:29.002Z,8408.00
2022-09-04T08:11:29.012Z,8548.00
2022-09-04T08:12:28.970Z,8696.00
2022-09-04T08:13:28.949Z,8832.00
2022-09-04T08:14:28.934Z,8916.00
2022-09-04T08:15:28.961Z,8956.00
2022-09-04T08:16:28.927Z,8988.00
2022-09-04T08:17:28.894Z,9104.00
2022-09-04T08:18:28.879Z,9348.00
2022-09-04T08:19:28.868Z,9612.00
2022-09-04T08:20:29.008Z,9760.00
2022-09-04T08:21:28.840Z,9896.00
2022-09-04T08:22:28.823Z,10080.00
2022-09-04T08:23:28.808Z,10300.00
2022-09-04T08:24:28.794Z,10448.00
2022-09-04T08:25:28.786Z,10524.00
2022-09-04T08:26:28.770Z,10744.00
2022-09-04T08:27:28.763Z,10940.00
2022-09-04T08:28:28.741Z,11136.00
2022-09-04T08:29:28.731Z,11392.00
2022-09-04T08:30:28.713Z,11572.00
2022-09-04T08:31:28.804Z,11748.00
2022-09-04T08:32:32.467Z,11904.00
2022-09-04T08:33:28.680Z,12108.00
2022-09-04T08:34:28.667Z,12288.00
2022-09-04T08:35:28.679Z,12476.00
2022-09-04T08:36:28.638Z,12740.00
2022-09-04T08:37:28.623Z,13048.00
2022-09-04T08:38:28.613Z,13332.00
2022-09-04T08:39:28.636Z,13536.00
2022-09-04T08:40:28.588Z,13808.00
2022-09-04T08:41:28.567Z,14124.00
2022-09-04T08:42:28.559Z,14368.00
2022-09-04T08:43:28.552Z,14704.00
2022-09-04T08:44:28.536Z,15084.00
2022-09-04T08:45:28.522Z,15548.00
2022-09-04T08:46:29.110Z,16168.00
2022-09-04T08:47:28.549Z,17076.00
2022-09-04T08:48:28.490Z,18432.00
2022-09-04T08:49:28.490Z,20000.00
2022-09-04T08:50:28.466Z,22080.00
2022-09-04T08:51:28.455Z,25984.00
2022-09-04T08:52:28.439Z,31744.00
2022-09-04T08:53:28.448Z,40416.00
2022-09-04T08:54:28.416Z,48992.00
2022-09-04T08:55:28.398Z,55264.00
2022-09-04T08:56:28.398Z,60448.00
2022-09-04T08:57:28.380Z,63520.00
2022-09-04T08:58:28.361Z,63488.00
2022-09-04T08:59:28.350Z,64960.00
2022-09-04T09:00:28.343Z,65216.00
2022-09-04T09:01:28.370Z,67584.00
2022-09-04T09:02:28.343Z,68544.00
2022-09-04T09:03:28.307Z,68960.00
2022-09-04T09:04:28.288Z,69024.00
2022-09-04T09:05:28.280Z,69440.00
2022-09-04T09:06:28.270Z,70976.00
2022-09-04T09:07:28.257Z,72192.00
2022-09-04T09:08:31.540Z,73856.00
2022-09-04T09:09:28.243Z,75392.00
2022-09-04T09:10:28.252Z,74816.00
2022-09-04T09:11:28.206Z,74368.00
2022-09-04T09:12:28.193Z,75008.00
2022-09-04T09:13:28.194Z,76576.00
2022-09-04T09:14:28.172Z,77056.00
2022-09-04T09:15:28.175Z,77600.00
2022-09-04T09:16:28.231Z,79456.00
2022-09-04T09:17:29.844Z,81216.00
2022-09-04T09:18:28.126Z,82464.00
2022-09-04T09:19:28.111Z,82368.00
2022-09-04T09:20:28.101Z,81216.00
2022-09-04T09:21:28.089Z,79840.00
2022-09-04T09:22:28.091Z,79552.00
2022-09-04T09:23:28.186Z,78528.00
2022-09-04T09:24:28.054Z,77632.00
2022-09-04T09:25:28.052Z,78464.00
2022-09-04T09:26:28.038Z,77888.00
2022-09-04T09:27:28.023Z,79360.00
2022-09-04T09:28:28.013Z,79456.00
2022-09-04T09:29:27.996Z,79520.00
2022-09-04T09:30:28.063Z,80576.00
2022-09-04T09:31:27.972Z,81696.00
2022-09-04T09:32:28.018Z,81984.00
2022-09-04T09:33:27.988Z,82656.00
2022-09-04T09:34:27.941Z,83648.00
2022-09-04T09:35:27.930Z,85728.00
2022-09-04T09:36:27.918Z,86624.00
2022-09-04T09:37:27.907Z,87200.00
2022-09-04T09:38:27.909Z,86016.00
2022-09-04T09:39:27.919Z,83392.00
2022-09-04T09:40:27.887Z,81344.00
2022-09-04T09:41:27.862Z,79712.00
2022-09-04T09:42:27.849Z,76608.00
2022-09-04T09:43:27.838Z,71168.00
2022-09-04T09:44:27.829Z,70720.00
2022-09-04T09:45:27.826Z,70112.00
2022-09-04T09:46:27.883Z,70400.00
2022-09-04T09:47:27.836Z,71808.00
2022-09-04T09:48:27.787Z,72448.00
2022-09-04T09:49:27.774Z,72032.00
2022-09-04T09:50:27.762Z,72480.00
2022-09-04T09:51:27.760Z,72512.00
2022-09-04T09:52:27.740Z,72960.00
2022-09-04T09:53:27.765Z,72128.00
2022-09-04T09:54:27.751Z,73216.00
2022-09-04T09:55:27.711Z,74336.00
2022-09-04T09:56:27.713Z,75680.00
2022-09-04T09:57:33.507Z,73600.00
2022-09-04T09:58:27.685Z,17084.00
2022-09-04T09:59:27.700Z,72288.00
2022-09-04T10:00:27.672Z,71712.00
2022-09-04T10:01:27.703Z,78624.00
2022-09-04T10:02:27.664Z,78432.00
2022-09-04T10:03:27.641Z,80192.00
2022-09-04T10:04:27.627Z,45024.00
2022-09-04T10:05:27.617Z,80800.00
2022-09-04T10:06:27.627Z,25248.00
2022-09-04T10:07:27.593Z,43040.00
2022-09-04T10:08:35.406Z,36256.00
2022-09-04T10:09:27.576Z,33440.00
2022-09-04T10:10:27.563Z,33088.00
2022-09-04T10:11:27.556Z,29216.00
2022-09-04T10:12:27.549Z,22176.00
2022-09-04T10:13:27.569Z,16708.00
2022-09-04T10:14:27.523Z,32864.00
2022-09-04T10:15:27.517Z,21696.00
2022-09-04T10:16:27.579Z,16640.00
2022-09-04T10:17:27.502Z,14056.00
2022-09-04T10:18:27.516Z,15104.00
2022-09-04T10:19:27.493Z,16880.00
2022-09-04T10:20:27.476Z,17068.00
2022-09-04T10:21:27.469Z,19200.00
2022-09-04T10:22:27.447Z,21440.00
2022-09-04T10:23:27.441Z,33472.00
2022-09-04T10:24:27.429Z,89984.00
2022-09-04T10:25:27.427Z,79168.00
2022-09-04T10:26:31.745Z,25632.00
2022-09-04T10:27:27.396Z,86720.00
2022-09-04T10:28:27.383Z,56064.00
2022-09-04T10:29:27.389Z,44320.00
2022-09-04T10:30:27.454Z,88800.00
2022-09-04T10:31:27.365Z,60032.00
2022-09-04T10:32:27.348Z,48896.00
2022-09-04T10:33:27.507Z,38976.00
2022-09-04T10:34:27.340Z,25216.00
2022-09-04T10:35:27.338Z,19744.00
2022-09-04T10:36:27.310Z,40256.00
2022-09-04T10:37:27.319Z,21408.00
2022-09-04T10:38:27.289Z,24352.00
2022-09-04T10:39:27.346Z,17664.00
2022-09-04T10:40:27.302Z,20160.00
2022-09-04T10:41:27.256Z,18912.00
2022-09-04T10:42:27.249Z,81408.00
2022-09-04T10:43:27.244Z,81536.00
2022-09-04T10:44:27.227Z,24320.00
2022-09-04T10:45:27.318Z,22336.00
2022-09-04T10:46:27.242Z,53664.00
2022-09-04T10:47:27.201Z,85728.00
2022-09-04T10:48:28.741Z,83776.00
2022-09-04T10:49:27.191Z,81984.00
2022-09-04T10:50:27.204Z,82048.00
2022-09-04T10:51:27.174Z,81760.00
2022-09-04T10:52:27.149Z,80832.00
2022-09-04T10:53:27.140Z,51680.00
2022-09-04T10:54:27.140Z,82048.00
2022-09-04T10:55:27.132Z,46208.00
2022-09-04T10:56:27.112Z,74368.00
2022-09-04T10:57:27.108Z,79136.00
2022-09-04T10:58:27.123Z,82656.00
2022-09-04T10:59:27.108Z,83648.00
2022-09-04T11:00:27.084Z,82176.00
2022-09-04T11:01:27.154Z,83616.00
2022-09-04T11:02:27.171Z,84000.00
2022-09-04T11:03:27.078Z,82688.00
2022-09-04T11:04:27.064Z,84352.00
2022-09-04T11:05:27.067Z,84544.00
2022-09-04T11:06:27.041Z,84416.00
2022-09-04T11:07:28.797Z,85120.00
2022-09-04T11:08:27.028Z,84064.00
2022-09-04T11:09:27.026Z,83520.00
2022-09-04T11:10:27.027Z,84640.00
2022-09-04T11:11:27.090Z,85152.00
2022-09-04T11:12:27.002Z,84992.00
2022-09-04T11:13:27.005Z,83520.00
2022-09-04T11:14:26.983Z,81728.00
2022-09-04T11:15:26.997Z,81824.00
2022-09-04T11:16:27.036Z,81952.00
2022-09-04T11:17:26.966Z,84480.00
2022-09-04T11:18:26.984Z,86528.00
2022-09-04T11:19:26.977Z,39584.00
2022-09-04T11:20:26.977Z,86464.00
2022-09-04T11:21:26.946Z,57600.00
2022-09-04T11:22:26.951Z,88832.00
2022-09-04T11:23:26.940Z,90048.00
2022-09-04T11:24:26.928Z,89056.00
2022-09-04T11:25:26.931Z,88352.00
2022-09-04T11:26:26.921Z,86304.00
2022-09-04T11:27:26.938Z,86016.00
2022-09-04T11:28:26.948Z,82816.00
2022-09-04T11:29:26.922Z,80128.00
2022-09-04T11:30:26.900Z,78048.00
2022-09-04T11:31:27.125Z,82912.00
2022-09-04T11:32:26.892Z,81536.00
2022-09-04T11:33:26.898Z,20544.00
2022-09-04T11:34:26.908Z,50080.00
2022-09-04T11:35:26.893Z,79488.00
2022-09-04T11:36:26.880Z,16676.00
2022-09-04T11:37:26.889Z,12288.00
2022-09-04T11:38:26.878Z,14384.00
2022-09-04T11:39:26.896Z,81568.00
2022-09-04T11:40:26.854Z,12492.00
2022-09-04T11:41:26.870Z,13896.00
2022-09-04T11:42:26.893Z,15244.00
2022-09-04T11:43:26.881Z,15536.00
2022-09-04T11:44:26.849Z,15860.00
2022-09-04T11:45:26.881Z,15536.00
2022-09-04T11:46:26.837Z,15476.00
2022-09-04T11:47:26.904Z,18528.00
2022-09-04T11:48:26.822Z,21216.00
2022-09-04T11:49:26.835Z,17984.00
2022-09-04T11:50:26.779Z,17428.00
2022-09-04T11:51:26.771Z,16744.00
2022-09-04T11:52:26.777Z,17128.00
2022-09-04T11:53:26.761Z,32512.00
2022-09-04T11:54:26.757Z,41056.00
2022-09-04T11:55:26.777Z,77152.00
2022-09-04T11:56:26.726Z,72768.00
2022-09-04T11:57:26.746Z,18248.00
2022-09-04T11:58:26.731Z,22624.00
2022-09-04T11:59:26.703Z,46208.00
2022-09-04T12:00:26.692Z,43360.00
2022-09-04T12:01:26.697Z,63840.00
2022-09-04T12:02:26.791Z,54112.00
2022-09-04T12:03:26.697Z,60928.00
2022-09-04T12:04:26.683Z,59904.00
2022-09-04T12:05:26.681Z,57504.00
2022-09-04T12:06:26.648Z,54848.00
2022-09-04T12:07:26.638Z,52832.00
2022-09-04T12:08:26.646Z,52064.00
2022-09-04T12:09:26.628Z,51456.00
2022-09-04T12:10:26.648Z,49344.00
2022-09-04T12:11:26.611Z,49312.00
2022-09-04T12:12:26.609Z,47488.00
2022-09-04T12:13:27.143Z,46304.00
2022-09-04T12:14:26.633Z,44768.00
2022-09-04T12:15:26.594Z,43520.00
2022-09-04T12:16:26.725Z,19936.00
2022-09-04T12:17:26.780Z,12492.00
2022-09-04T12:18:26.769Z,35200.00
2022-09-04T12:19:26.584Z,39136.00
2022-09-04T12:20:26.578Z,37984.00
2022-09-04T12:21:26.560Z,35552.00
2022-09-04T12:22:26.555Z,35456.00
2022-09-04T12:23:26.553Z,34496.00
2022-09-04T12:24:26.576Z,34048.00